Terminal Aerodrome Forecast
Issued by NWS Atlanta, GA

Home | Current Version | Previous Version | Text Only | Print | Product List | Glossary On
Versions: 1 2 3 4 5 6 7 8 9 10 11 12 13 14 15 16 17 18 19 20 21 22 23 24 25 26 27 28 29
973
FTUS42 KFFC 211522 AAC
TAFCSG
TAF AMD
KCSG 211522Z 2115/2212 19007KT 5SM SHRA BR BKN005 OVC015
      TEMPO 2115/2117 VRB15G25KT 2SM +TSRA OVC006CB
     FM211700 19007KT 5SM SHRA BR BKN012 OVC025
     FM212100 18006KT 6SM BR VCSH BKN025
     FM220100 17005KT 5SM -SHRA BR BKN007 OVC012
     FM220500 16007KT 3SM -SHRA BR OVC005 PROB30 2205/2211 2SM TSRA
      BKN005 OVC012CB=

USA.gov is the U.S. government's official web portal to all federal, state and local government web resources and services.